Startpagina
METAR-TAF:

METAR-TAF

Vliegvelden :

Reykjavik, IJsland

Reykjavíkurflugvöllur

breedte: 64-08N, lengte: 021-54W, hoogte: 54 m

Actueel weer

Dit bericht is 56 minuten geleden gemaakt, om 11:00 UTC
Wind 8 kt uit het oostnoordoosten
Temperatuur -4°C
Vochtigheid 63%
Druk 1022 hPa
Zicht 10 km of meer
geen wolken onder 1500 m en geen cumulonimbus

METAR: BIRK 191100Z 07008KT CAVOK M04/M10 Q1022

Tijdstip: 11:56 (11:56 UTC)

Verwachting

Dit bericht is 1 uur en het 8 minuten geleden gemaakt, om 10:48 UTC
Verwachting geldig van 19 om 12 UTC tot 20 om 12 UTC
Wind 13 kt uit het oosten
Zicht 10 km of meer
geen wolken onder 1500 m en geen cumulonimbus

TAF: BIRK 191048Z 1912/2012 08013KT CAVOK TXM01/1915Z TNM05/2009Z

Waarnemingen en weersverwachtingen van meer dan 4000 vliegvelden (METAR en TAF).

De beschikbare stations zijn de gele en rode punten op de kaart.

Ga met uw muis naar het station om de naam te zien.

Klik dan om waarnemingen en weersverwachtingen te zien.

kaart wijzigen: klik op de groene knoppen met een zwart kruis om in te zoomen, op de groene knop met een streepje om uit te zoomen of op de groene pijlen voor aangrenzende kaarten.


METAR-TAF: